Pagrindinis puslapis
METAR-TAF:

METAR-TAF

Oro uostai :

Akıncı, Turkija

platuma: 40-05N, ilguma: 032-34E, Aukštis: 843 m

Dabartinis oras

Ataskaita buvo paskelbta 25 valandos ir 2 minutes, ne 04:50 UTC
Vėjas 6 kt iš Šiaurės
Temperatūra 6°C
Drėgmė 56%
Slėgis 1014 hPa
Matomumas 10 km arba daugiau
nėra debesų žemiau 1500 m ir nėra kamuolinių lietaus debesų

METAR: LTAE 090450Z 36006KT CAVOK 06/M02 Q1014 NOSIG RMK RWY21 36007KT

Laikas: 08:52 (05:52 UTC)

Prognozė

Ataskaita buvo paskelbta 25 valandos ir 12 minutes, ne 04:40 UTC
Prognozė galioja nuo 09 metu 06 UTC su 09 metu 15 UTC
Vėjas 2 kt nuo kintamojo kryptimis
Matomumas 10 km arba daugiau
Išsisklaidę debesys ne aukštis 4000 ft
Laikinai
nuo 09 metu 12 UTC su 09 metu 15 UTC
Vėjas 12 kt iš Šiaurės Rytų

TAF: LTAE 090440Z 0906/0915 VRB02KT 9999 SCT040 TEMPO 0912/0915 04012KT

Orai ataskaitas ir orų prognozės (METAR, TAF).

turimą stotys yra geltonos ir raudonos taškus žemėlapyje.

Perkelti pele per norėdami pamatyti stoties vardą.

Tada spustelėkite, norėdami matyti oro stebėjimo ir prognozės.

Norėdami pakeisti žemėlapį: spustelėkite ant žalios mygtukų su juodo kryžiaus žemyn,; žalią mygtuką su brūkšneliu, jei norite nutolinti; arba žalių rodyklių gretimoms žemėlapius.


METAR-TAF: